createdAt,value
2024-03-28T00:00:16.717Z,91139.29
2024-03-28T00:01:42.308Z,91140.44
2024-03-28T00:02:16.022Z,91134.03
2024-03-28T00:02:49.306Z,91141.44
2024-03-28T00:03:22.703Z,91140.39
2024-03-28T00:03:56.089Z,91143.55
2024-03-28T00:04:29.444Z,91144.63
2024-03-28T00:05:19.642Z,91136.53
2024-03-28T00:05:56.887Z,91139.34
2024-03-28T00:06:30.178Z,91144.95
2024-03-28T00:07:03.866Z,91137.81
2024-03-28T00:07:37.997Z,91139.58
2024-03-28T00:08:11.278Z,91136.38
2024-03-28T00:09:04.431Z,91136.68
2024-03-28T00:09:37.838Z,91140.21
2024-03-28T00:10:11.597Z,91139.77
2024-03-28T00:10:48.923Z,91153.59
2024-03-28T00:11:21.979Z,91148.47
2024-03-28T00:11:55.155Z,91145.59
2024-03-28T00:12:45.288Z,91145.86
2024-03-28T00:13:19.866Z,91149.35
2024-03-28T00:13:53.753Z,91149.77
2024-03-28T00:14:28.093Z,91146.02
2024-03-28T00:15:01.739Z,91148.95
2024-03-28T00:15:36.242Z,91147.88
2024-03-28T00:16:27.084Z,91146.39
2024-03-28T00:17:02.758Z,91152.63
2024-03-28T00:17:36.286Z,91152.82
2024-03-28T00:18:09.885Z,91146.29
2024-03-28T00:18:43.311Z,91156.84
2024-03-28T00:19:26.790Z,91154.05
2024-03-28T00:20:13.842Z,91157.12
2024-03-28T00:20:47.305Z,91145.73
2024-03-28T00:21:20.779Z,91151.64
2024-03-28T00:21:53.948Z,91148.94
2024-03-28T00:22:27.140Z,91145.58
2024-03-28T00:23:02.808Z,91148.52
2024-03-28T00:23:55.316Z,91149.02
2024-03-28T00:24:29.073Z,91148.59
2024-03-28T00:25:02.220Z,91147.31
2024-03-28T00:25:35.140Z,91147.34
2024-03-28T00:26:10.045Z,91145.49
2024-03-28T00:26:43.111Z,91141.40
2024-03-28T00:27:32.691Z,91141.33
2024-03-28T00:28:06.702Z,91143.80
2024-03-28T00:28:40.134Z,91138.56
2024-03-28T00:29:13.504Z,91139.64
2024-03-28T00:29:47.165Z,91139.93
2024-03-28T00:30:20.667Z,91146.05
2024-03-28T00:31:10.740Z,91134.45
2024-03-28T00:31:44.105Z,91134.85
2024-03-28T00:32:17.612Z,91136.75
2024-03-28T00:32:51.129Z,91140.69
2024-03-28T00:33:24.757Z,91138.91
2024-03-28T00:33:58.323Z,91138.56
2024-03-28T00:34:47.863Z,91143.30
2024-03-28T00:35:22.259Z,91133.86
2024-03-28T00:35:56.158Z,91132.18
2024-03-28T00:36:29.490Z,91125.05
2024-03-28T00:37:02.896Z,91130.02
2024-03-28T00:37:36.163Z,91121.63
2024-03-28T00:38:33.447Z,91125.36
2024-03-28T00:39:07.186Z,91119.02
2024-03-28T00:39:40.280Z,91120.46
2024-03-28T00:40:16.898Z,91120.73
2024-03-28T00:40:52.384Z,91113.95
2024-03-28T00:41:25.808Z,91115.77
2024-03-28T00:42:12.647Z,91118.52
2024-03-28T00:42:46.609Z,91119.09
2024-03-28T00:43:22.081Z,91112.37
2024-03-28T00:43:55.122Z,91121.83
2024-03-28T00:44:28.356Z,91127.17
2024-03-28T00:45:02.340Z,91121.31
2024-03-28T00:45:54.254Z,91124.66
2024-03-28T00:46:27.673Z,91128.00
2024-03-28T00:47:00.882Z,91131.48
2024-03-28T00:47:34.154Z,91136.09
2024-03-28T00:48:07.550Z,91133.44
2024-03-28T00:48:40.551Z,91131.40
2024-03-28T00:49:35.363Z,91139.05
2024-03-28T00:50:09.005Z,91131.80
2024-03-28T00:50:42.131Z,91137.36
2024-03-28T00:51:15.472Z,91138.27
2024-03-28T00:51:48.723Z,91138.46
2024-03-28T00:52:21.808Z,91137.27
2024-03-28T00:53:18.607Z,91133.27
2024-03-28T00:53:51.853Z,91142.19
2024-03-28T00:54:24.798Z,91137.58
2024-03-28T00:54:58.154Z,91139.60
2024-03-28T00:55:31.780Z,91137.92
2024-03-28T00:56:05.192Z,91143.52
2024-03-28T00:56:53.891Z,91141.81
2024-03-28T00:57:27.174Z,91146.84
2024-03-28T00:58:00.582Z,91141.41
2024-03-28T00:58:34.373Z,91136.65
2024-03-28T00:59:07.693Z,91132.37
2024-03-28T00:59:40.845Z,91129.13
2024-03-28T01:00:34.587Z,91128.12
2024-03-28T01:01:07.831Z,91133.43
2024-03-28T01:01:41.005Z,91142.84
2024-03-28T01:02:14.112Z,91146.24
2024-03-28T01:02:47.825Z,91149.41
2024-03-28T01:03:21.164Z,91144.07
2024-03-28T01:04:16.791Z,91150.23
2024-03-28T01:04:51.562Z,91153.90
2024-03-28T01:05:24.595Z,91144.96
2024-03-28T01:05:58.924Z,91135.15
2024-03-28T01:06:32.340Z,91145.13
2024-03-28T01:07:05.648Z,91142.83
2024-03-28T01:07:54.080Z,91145.63
2024-03-28T01:08:28.516Z,91145.14
2024-03-28T01:09:01.950Z,91149.40
2024-03-28T01:09:35.315Z,91151.42
2024-03-28T01:10:09.112Z,91162.30
2024-03-28T01:10:42.694Z,91152.70
2024-03-28T01:11:36.231Z,91154.30
2024-03-28T01:12:09.776Z,91153.04
2024-03-28T01:12:43.363Z,91136.55
2024-03-28T01:13:16.743Z,91136.14
2024-03-28T01:13:50.116Z,91143.23
2024-03-28T01:14:23.328Z,91142.74
2024-03-28T01:15:18.932Z,91140.52
2024-03-28T01:15:52.183Z,91140.16
2024-03-28T01:16:25.795Z,91136.73
2024-03-28T01:16:59.194Z,91134.33
2024-03-28T01:17:32.741Z,91147.28
2024-03-28T01:18:06.046Z,91150.88
2024-03-28T01:18:54.750Z,91156.57
2024-03-28T01:19:28.033Z,91161.16
2024-03-28T01:20:01.193Z,91165.41
2024-03-28T01:20:34.595Z,91167.13
2024-03-28T01:21:08.180Z,91169.08
2024-03-28T01:21:41.291Z,91176.77
2024-03-28T01:22:34.992Z,91162.50
2024-03-28T01:23:08.504Z,91178.67
2024-03-28T01:23:41.999Z,91166.30
2024-03-28T01:24:15.189Z,91159.38
2024-03-28T01:24:48.670Z,91168.92
2024-03-28T01:25:22.011Z,91168.66
2024-03-28T01:26:15.894Z,91170.69
2024-03-28T01:26:49.867Z,91172.82
2024-03-28T01:27:23.779Z,91173.81
2024-03-28T01:27:59.536Z,91168.64
2024-03-28T01:28:34.219Z,91167.80
2024-03-28T01:29:07.484Z,91165.70
2024-03-28T01:29:57.817Z,91169.66
2024-03-28T01:30:31.267Z,91177.36
2024-03-28T01:31:05.465Z,91175.86
2024-03-28T01:31:38.696Z,91181.13
2024-03-28T01:32:12.251Z,91178.78
2024-03-28T01:32:45.435Z,91184.71
2024-03-28T01:33:38.783Z,91188.02
2024-03-28T01:34:11.943Z,91191.27
2024-03-28T01:34:45.159Z,91193.33
2024-03-28T01:35:18.792Z,91191.58
2024-03-28T01:35:52.337Z,91195.88
2024-03-28T01:36:25.626Z,91187.96
2024-03-28T01:37:19.363Z,91190.23
2024-03-28T01:37:53.070Z,91187.78
2024-03-28T01:38:26.121Z,91188.66
2024-03-28T01:38:59.455Z,91190.70
2024-03-28T01:39:32.890Z,91183.30
2024-03-28T01:40:06.598Z,91183.70
2024-03-28T01:41:00.432Z,91181.52
2024-03-28T01:41:33.894Z,91181.04
2024-03-28T01:42:07.399Z,91187.05
2024-03-28T01:42:40.678Z,91184.83
2024-03-28T01:43:14.065Z,91184.02
2024-03-28T01:43:47.537Z,91188.66
2024-03-28T01:44:37.944Z,91185.06
2024-03-28T01:45:14.257Z,91191.25
2024-03-28T01:45:48.242Z,91191.80
2024-03-28T01:46:32.361Z,91185.79
2024-03-28T01:47:35.351Z,91177.01
2024-03-28T01:48:35.858Z,91191.08
2024-03-28T01:49:10.823Z,91195.09
2024-03-28T01:49:44.677Z,91186.98
2024-03-28T01:50:18.276Z,91192.27
2024-03-28T01:50:51.597Z,91193.88
2024-03-28T01:51:25.827Z,91198.98
2024-03-28T01:52:19.152Z,91208.56
2024-03-28T01:52:53.328Z,91190.58
2024-03-28T01:53:29.168Z,91211.35
2024-03-28T01:54:06.189Z,91210.58
2024-03-28T01:54:41.119Z,91217.75
2024-03-28T01:55:14.886Z,91220.33
2024-03-28T01:56:00.041Z,91223.17
2024-03-28T01:56:35.473Z,91227.73
2024-03-28T01:57:14.735Z,91224.11
2024-03-28T01:57:49.145Z,91230.42
2024-03-28T01:58:22.658Z,91236.03
2024-03-28T01:58:55.877Z,91235.09
2024-03-28T01:59:44.498Z,91236.36
2024-03-28T02:00:19.865Z,91248.45
2024-03-28T02:00:54.253Z,91245.07
2024-03-28T02:01:28.296Z,91247.88
2024-03-28T02:02:03.552Z,91249.94
2024-03-28T02:02:38.880Z,91259.42
2024-03-28T02:03:28.128Z,91258.13
2024-03-28T02:04:01.429Z,91265.48
2024-03-28T02:04:37.278Z,91267.96
2024-03-28T02:05:11.408Z,91256.86
2024-03-28T02:05:45.656Z,91264.59
2024-03-28T02:06:19.139Z,91254.64
2024-03-28T02:07:07.175Z,91269.44
2024-03-28T02:07:40.766Z,91273.20
2024-03-28T02:08:14.256Z,91275.14
2024-03-28T02:08:48.886Z,91274.43
2024-03-28T02:09:22.988Z,91272.69
2024-03-28T02:09:56.215Z,91274.19
2024-03-28T02:10:48.010Z,91279.11
2024-03-28T02:11:21.585Z,91280.98
2024-03-28T02:11:55.036Z,91280.88
2024-03-28T02:12:28.757Z,91285.95
2024-03-28T02:13:02.936Z,91285.70
2024-03-28T02:13:36.547Z,91286.27
2024-03-28T02:14:29.245Z,91287.00
2024-03-28T02:15:03.094Z,91279.55
2024-03-28T02:15:36.471Z,91278.66
2024-03-28T02:16:09.784Z,91276.48
2024-03-28T02:16:43.294Z,91279.14
2024-03-28T02:17:16.432Z,91271.84
2024-03-28T02:18:10.436Z,91271.84
2024-03-28T02:18:44.033Z,91274.63
2024-03-28T02:19:17.523Z,91279.62
2024-03-28T02:19:50.998Z,91274.02
2024-03-28T02:20:24.474Z,91272.27
2024-03-28T02:20:58.713Z,91273.23
2024-03-28T02:21:51.499Z,91273.38
2024-03-28T02:22:25.055Z,91274.56
2024-03-28T02:22:58.694Z,91267.89
2024-03-28T02:23:32.572Z,91272.60
2024-03-28T02:24:06.120Z,91277.21
2024-03-28T02:24:42.319Z,91274.91
2024-03-28T02:25:31.222Z,91265.01
2024-03-28T02:26:05.420Z,91265.98
2024-03-28T02:26:40.085Z,91267.90
2024-03-28T02:27:13.649Z,91272.21
2024-03-28T02:27:46.748Z,91272.37
2024-03-28T02:28:20.172Z,91273.47
2024-03-28T02:29:12.786Z,91264.88
2024-03-28T02:29:46.543Z,91270.83
2024-03-28T02:30:20.456Z,91267.96
2024-03-28T02:30:53.634Z,91273.03
2024-03-28T02:31:26.705Z,91273.35
2024-03-28T02:32:00.135Z,91269.20
2024-03-28T02:32:54.374Z,91269.64
2024-03-28T02:33:28.190Z,91269.72
2024-03-28T02:34:01.343Z,91271.89
2024-03-28T02:34:34.615Z,91277.95
2024-03-28T02:35:09.580Z,91274.77
2024-03-28T02:35:43.118Z,91274.83
2024-03-28T02:36:35.358Z,91284.80
2024-03-28T02:37:09.043Z,91289.23
2024-03-28T02:37:43.843Z,91282.02
2024-03-28T02:38:23.707Z,91270.41
2024-03-28T02:38:57.145Z,91287.75
2024-03-28T02:39:30.673Z,91287.52
2024-03-28T02:40:19.650Z,91290.79
2024-03-28T02:40:53.191Z,91293.22
2024-03-28T02:41:26.480Z,91290.52
2024-03-28T02:41:59.901Z,91296.05
2024-03-28T02:42:33.111Z,91302.81
2024-03-28T02:43:06.493Z,91303.84
2024-03-28T02:43:56.999Z,91307.77
2024-03-28T02:44:30.716Z,91316.24
2024-03-28T02:45:04.624Z,91314.61
2024-03-28T02:45:40.376Z,91317.27
2024-03-28T02:46:13.889Z,91317.22
2024-03-28T02:46:47.072Z,91326.17
2024-03-28T02:47:38.234Z,91319.77
2024-03-28T02:48:11.698Z,91323.79
2024-03-28T02:48:44.964Z,91317.66
2024-03-28T02:49:18.147Z,91318.73
2024-03-28T02:49:51.225Z,91316.77
2024-03-28T02:50:24.333Z,91317.25
2024-03-28T02:51:19.022Z,91315.23
2024-03-28T02:51:52.192Z,91314.80
2024-03-28T02:52:26.537Z,91308.83
2024-03-28T02:52:59.725Z,91315.42
2024-03-28T02:53:32.952Z,91311.43
2024-03-28T02:54:06.176Z,91310.14
2024-03-28T02:54:59.655Z,91305.80
2024-03-28T02:55:33.318Z,91302.42
2024-03-28T02:56:07.097Z,91303.88
2024-03-28T02:56:40.315Z,91311.59
2024-03-28T02:57:26.015Z,91311.10
2024-03-28T02:57:59.433Z,91306.52
2024-03-28T02:58:42.922Z,91307.34
2024-03-28T02:59:16.230Z,91312.58
2024-03-28T02:59:49.526Z,91309.84
2024-03-28T03:00:22.822Z,91311.48
2024-03-28T03:00:56.271Z,91306.13
2024-03-28T03:01:29.658Z,91306.95
2024-03-28T03:02:24.663Z,91309.59
2024-03-28T03:03:00.423Z,91312.19
2024-03-28T03:03:34.077Z,91316.03
2024-03-28T03:04:08.785Z,91305.58
2024-03-28T03:04:41.937Z,91300.66
2024-03-28T03:05:15.233Z,91303.23
2024-03-28T03:06:05.052Z,91297.27
2024-03-28T03:06:38.454Z,91298.80
2024-03-28T03:07:11.668Z,91296.14
2024-03-28T03:07:44.957Z,91280.80
2024-03-28T03:08:18.304Z,91285.48
2024-03-28T03:08:51.732Z,91287.11
2024-03-28T03:09:42.591Z,91289.91
2024-03-28T03:10:16.500Z,91293.23
2024-03-28T03:10:51.047Z,91290.54
2024-03-28T03:12:47.219Z,91292.11
2024-03-28T03:13:21.334Z,91286.70
2024-03-28T03:14:09.622Z,91291.02
2024-03-28T03:14:43.303Z,91292.56
2024-03-28T03:15:16.612Z,91292.39
2024-03-28T03:15:54.263Z,91294.48
2024-03-28T03:16:27.566Z,91295.83
2024-03-28T03:17:01.185Z,91290.66
2024-03-28T03:17:49.575Z,91293.20
2024-03-28T03:18:27.453Z,91301.05
2024-03-28T03:19:04.024Z,91299.31
2024-03-28T03:19:37.842Z,91291.99
2024-03-28T03:20:15.061Z,91295.54
2024-03-28T03:20:51.291Z,91299.85
2024-03-28T03:21:34.749Z,91296.64
2024-03-28T03:22:08.243Z,91303.17
2024-03-28T03:22:49.918Z,91304.10
2024-03-28T03:23:23.441Z,91301.06
2024-03-28T03:24:02.175Z,91302.90
2024-03-28T03:24:40.076Z,91309.14
2024-03-28T03:25:27.775Z,91308.63
2024-03-28T03:26:01.302Z,91309.88
2024-03-28T03:26:36.495Z,91311.52
2024-03-28T03:27:17.602Z,91309.43
2024-03-28T03:28:11.071Z,91316.06
2024-03-28T03:29:19.775Z,91319.40
2024-03-28T03:30:11.193Z,91316.37
2024-03-28T03:31:05.041Z,91319.06
2024-03-28T03:31:56.571Z,91314.30
2024-03-28T03:33:19.262Z,91317.06
2024-03-28T03:34:11.056Z,91322.20
2024-03-28T03:34:45.281Z,91321.62
2024-03-28T03:35:22.142Z,91319.00
2024-03-28T03:35:55.681Z,91321.60
2024-03-28T03:36:41.036Z,91316.51
2024-03-28T03:37:22.831Z,91319.77
2024-03-28T03:37:56.027Z,91316.70
2024-03-28T03:38:29.233Z,91323.85
2024-03-28T03:39:04.058Z,91322.28
2024-03-28T03:39:37.809Z,91318.40
2024-03-28T03:40:30.038Z,91319.52
2024-03-28T03:41:03.629Z,91311.23
2024-03-28T03:41:36.747Z,91313.60
2024-03-28T03:42:10.105Z,91313.55
2024-03-28T03:42:43.204Z,91310.27
2024-03-28T03:43:16.159Z,91316.45
2024-03-28T03:44:10.791Z,91315.95
2024-03-28T03:44:44.112Z,91318.16
2024-03-28T03:45:17.495Z,91310.71
2024-03-28T03:45:52.232Z,91315.14
2024-03-28T03:46:26.733Z,91318.34
2024-03-28T03:47:01.230Z,91313.31
2024-03-28T03:47:51.226Z,91310.77
2024-03-28T03:48:24.282Z,91313.71
2024-03-28T03:48:57.358Z,91313.99
2024-03-28T03:49:30.591Z,91310.81
2024-03-28T03:50:04.082Z,91306.35
2024-03-28T03:50:37.308Z,91308.14
2024-03-28T03:51:31.474Z,91306.19
2024-03-28T03:52:05.436Z,91307.46
2024-03-28T03:52:38.652Z,91307.79
2024-03-28T03:53:11.789Z,91304.64
2024-03-28T03:53:44.999Z,91305.50
2024-03-28T03:54:18.233Z,91306.21
2024-03-28T03:55:12.734Z,91307.70
2024-03-28T03:55:55.934Z,91311.60
2024-03-28T03:56:29.814Z,91310.34
2024-03-28T03:57:03.201Z,91305.83
2024-03-28T03:57:36.537Z,91309.08
2024-03-28T03:58:09.811Z,91306.88
2024-03-28T03:59:04.090Z,91311.09
2024-03-28T03:59:38.824Z,91307.86
2024-03-28T04:00:13.265Z,91310.27
2024-03-28T04:00:46.425Z,91319.89
2024-03-28T04:01:19.706Z,91315.99
2024-03-28T04:01:54.442Z,91323.30
2024-03-28T04:02:41.396Z,91320.54
2024-03-28T04:03:14.849Z,91321.08
2024-03-28T04:03:48.034Z,91320.00
2024-03-28T04:04:21.241Z,91320.20
2024-03-28T04:04:54.578Z,91320.11
2024-03-28T04:05:28.130Z,91322.06
2024-03-28T04:06:23.365Z,91316.60
2024-03-28T04:06:57.852Z,91323.04
2024-03-28T04:07:31.188Z,91320.69
2024-03-28T04:08:04.555Z,91325.08
2024-03-28T04:08:38.281Z,91324.83
2024-03-28T04:09:12.718Z,91323.55
2024-03-28T04:09:59.863Z,91322.91
2024-03-28T04:10:34.462Z,91327.13
2024-03-28T04:11:08.243Z,91322.40
2024-03-28T04:11:41.331Z,91321.43
2024-03-28T04:12:14.536Z,91323.77
2024-03-28T04:12:47.601Z,91323.17
2024-03-28T04:13:42.235Z,91321.26
2024-03-28T04:14:16.718Z,91316.63
2024-03-28T04:14:50.188Z,91316.96
2024-03-28T04:15:23.296Z,91318.88
2024-03-28T04:15:56.688Z,91318.20
2024-03-28T04:16:30.059Z,91315.48
2024-03-28T04:17:19.662Z,91315.17
2024-03-28T04:17:53.251Z,91316.94
2024-03-28T04:18:26.596Z,91318.22
2024-03-28T04:18:59.798Z,91313.44
2024-03-28T04:19:32.984Z,91317.95
2024-03-28T04:20:12.543Z,91321.27
2024-03-28T04:21:05.301Z,91321.14
2024-03-28T04:21:41.513Z,91323.78
2024-03-28T04:22:17.578Z,91323.10
2024-03-28T04:22:50.759Z,91319.11
2024-03-28T04:23:25.044Z,91326.33
2024-03-28T04:23:58.577Z,91324.90
2024-03-28T04:24:40.107Z,91327.32
2024-03-28T04:25:13.703Z,91330.05
2024-03-28T04:25:55.069Z,91329.36
2024-03-28T04:26:33.635Z,91315.56
2024-03-28T04:27:07.255Z,91324.67
2024-03-28T04:27:40.836Z,91326.02
2024-03-28T04:28:29.093Z,91324.52
2024-03-28T04:29:02.589Z,91322.20
2024-03-28T04:29:38.368Z,91322.64
2024-03-28T04:30:12.175Z,91325.38
2024-03-28T04:30:45.329Z,91321.58
2024-03-28T04:31:18.591Z,91319.45
2024-03-28T04:32:07.696Z,91317.69
2024-03-28T04:32:41.373Z,91326.05
2024-03-28T04:33:15.190Z,91323.73
2024-03-28T04:33:49.531Z,91323.91
2024-03-28T04:34:24.700Z,91328.21
2024-03-28T04:34:57.956Z,91329.81
2024-03-28T04:35:47.815Z,91327.88
2024-03-28T04:36:21.241Z,91332.80
2024-03-28T04:36:54.595Z,91331.60
2024-03-28T04:37:27.722Z,91336.95
2024-03-28T04:38:00.922Z,91334.12
2024-03-28T04:38:36.611Z,91339.54
2024-03-28T04:39:23.414Z,91342.88
2024-03-28T04:39:56.944Z,91340.42
2024-03-28T04:40:31.180Z,91341.39
2024-03-28T04:41:05.242Z,91341.69
2024-03-28T04:41:38.569Z,91341.48
2024-03-28T04:42:11.689Z,91342.27
2024-03-28T04:43:02.795Z,91341.60
2024-03-28T04:43:39.082Z,91346.41
2024-03-28T04:44:12.605Z,91343.42
2024-03-28T04:44:45.922Z,91342.25
2024-03-28T04:45:19.678Z,91342.48
2024-03-28T04:45:53.555Z,91342.39
2024-03-28T04:46:47.612Z,91340.77
2024-03-28T04:47:20.987Z,91339.45
2024-03-28T04:47:54.395Z,91337.84
2024-03-28T04:48:27.697Z,91342.02
2024-03-28T04:49:01.104Z,91339.44
2024-03-28T04:49:35.049Z,91342.52
2024-03-28T04:50:22.804Z,91348.23
2024-03-28T04:50:58.833Z,91347.23
2024-03-28T04:51:34.441Z,91351.46
2024-03-28T04:52:08.046Z,91351.32
2024-03-28T04:52:41.539Z,91353.84
2024-03-28T04:53:15.744Z,91357.02
2024-03-28T04:54:07.190Z,91359.69
2024-03-28T04:54:40.958Z,91362.57
2024-03-28T04:55:14.926Z,91364.96
2024-03-28T04:55:48.105Z,91363.73
2024-03-28T04:56:21.253Z,91367.23
2024-03-28T04:56:54.308Z,91365.77
2024-03-28T04:57:49.322Z,91368.86
2024-03-28T04:58:22.409Z,91370.59
2024-03-28T04:58:55.838Z,91369.27
2024-03-28T04:59:29.124Z,91369.77
2024-03-28T05:00:02.445Z,91365.73
2024-03-28T05:00:37.031Z,91368.77
2024-03-28T05:01:26.388Z,91363.39
2024-03-28T05:01:59.686Z,91372.25
2024-03-28T05:02:33.691Z,91364.77
2024-03-28T05:03:06.680Z,91369.65
2024-03-28T05:03:39.871Z,91367.08
2024-03-28T05:04:13.416Z,91365.04
2024-03-28T05:05:07.631Z,91365.91
2024-03-28T05:05:40.880Z,91369.24
2024-03-28T05:06:14.697Z,91372.13
2024-03-28T05:06:48.200Z,91373.42
2024-03-28T05:07:22.847Z,91373.45
2024-03-28T05:07:56.423Z,91370.25
2024-03-28T05:08:48.903Z,91368.48
2024-03-28T05:09:22.104Z,91368.88
2024-03-28T05:09:55.214Z,91369.05
2024-03-28T05:10:28.919Z,91366.61
2024-03-28T05:11:02.167Z,91367.43
2024-03-28T05:11:35.451Z,91371.28
2024-03-28T05:12:25.963Z,91369.57
2024-03-28T05:12:59.197Z,91371.15
2024-03-28T05:13:32.564Z,91371.36
2024-03-28T05:14:05.917Z,91375.33
2024-03-28T05:14:39.224Z,91375.19
2024-03-28T05:15:12.810Z,91371.20
2024-03-28T05:16:08.922Z,91374.25
2024-03-28T05:16:43.644Z,91370.48
2024-03-28T05:17:17.019Z,91377.95
2024-03-28T05:17:50.660Z,91377.60
2024-03-28T05:18:24.566Z,91377.55
2024-03-28T05:18:57.915Z,91374.58
2024-03-28T05:19:46.067Z,91379.43
2024-03-28T05:20:19.662Z,91382.14
2024-03-28T05:20:52.899Z,91379.39
2024-03-28T05:21:26.007Z,91382.83
2024-03-28T05:21:59.337Z,91384.16
2024-03-28T05:22:33.448Z,91384.83
2024-03-28T05:23:27.572Z,91385.09
2024-03-28T05:24:01.074Z,91389.73
2024-03-28T05:24:35.079Z,91388.46
2024-03-28T05:25:08.182Z,91384.77
2024-03-28T05:25:41.498Z,91390.99
2024-03-28T05:26:16.015Z,91392.52
2024-03-28T05:27:05.780Z,91389.81
2024-03-28T05:27:39.277Z,91399.67
2024-03-28T05:28:12.795Z,91396.52
2024-03-28T05:28:45.778Z,91396.95
2024-03-28T05:29:19.013Z,91397.66
2024-03-28T05:29:52.276Z,91393.25
2024-03-28T05:30:42.727Z,91393.97
2024-03-28T05:31:18.640Z,91396.23
2024-03-28T05:31:51.924Z,91395.02
2024-03-28T05:32:25.319Z,91394.15
2024-03-28T05:32:58.537Z,91395.67
2024-03-28T05:33:31.674Z,91399.46
2024-03-28T05:34:26.429Z,91402.36
2024-03-28T05:35:00.257Z,91407.39
2024-03-28T05:35:34.106Z,91407.10
2024-03-28T05:36:07.788Z,91409.29
2024-03-28T05:36:41.677Z,91401.80
2024-03-28T05:37:14.898Z,91409.18
2024-03-28T05:38:04.323Z,91410.55
2024-03-28T05:38:38.181Z,91414.50
2024-03-28T05:39:12.260Z,91410.24
2024-03-28T05:39:45.581Z,91412.60
2024-03-28T05:40:19.135Z,91411.73
2024-03-28T05:40:52.771Z,91408.49
2024-03-28T05:41:42.471Z,91409.93
2024-03-28T05:42:15.669Z,91408.83
2024-03-28T05:42:49.055Z,91407.83
2024-03-28T05:43:22.449Z,91407.16
2024-03-28T05:43:55.872Z,91404.16
2024-03-28T05:44:29.088Z,91407.27
2024-03-28T05:45:19.536Z,91407.04
2024-03-28T05:45:53.016Z,91406.13
2024-03-28T05:46:26.685Z,91408.31
2024-03-28T05:47:00.031Z,91409.80
2024-03-28T05:47:33.450Z,91411.30
2024-03-28T05:48:07.281Z,91410.95
2024-03-28T05:49:00.234Z,91413.59
2024-03-28T05:49:33.529Z,91410.41
2024-03-28T05:50:07.356Z,91415.70
2024-03-28T05:50:40.726Z,91410.86
2024-03-28T05:51:19.238Z,91416.84
2024-03-28T05:51:53.552Z,91414.15
2024-03-28T05:52:40.895Z,91416.58
2024-03-28T05:53:15.415Z,91421.92
2024-03-28T05:53:51.912Z,91425.91
2024-03-28T05:54:25.221Z,91422.46
2024-03-28T05:54:58.579Z,91422.30
2024-03-28T05:55:32.031Z,91424.36
2024-03-28T05:56:23.757Z,91418.52
2024-03-28T05:56:57.980Z,91423.16
2024-03-28T05:57:31.110Z,91422.80
2024-03-28T05:58:04.557Z,91423.61
2024-03-28T05:58:38.061Z,91427.44
2024-03-28T05:59:11.324Z,91426.58
2024-03-28T06:00:00.657Z,91428.19
2024-03-28T06:00:34.092Z,91423.20
2024-03-28T06:01:07.780Z,91427.44
2024-03-28T06:01:41.052Z,91422.64
2024-03-28T06:02:14.369Z,91428.58
2024-03-28T06:02:47.801Z,91428.51
2024-03-28T06:03:41.781Z,91425.95
2024-03-28T06:04:15.312Z,91431.03
2024-03-28T06:04:48.630Z,91428.19
2024-03-28T06:05:22.165Z,91429.86
2024-03-28T06:05:55.688Z,91432.02
2024-03-28T06:06:28.977Z,91430.42
2024-03-28T06:07:22.446Z,91437.45
2024-03-28T06:07:56.513Z,91434.94
2024-03-28T06:08:30.001Z,91434.20
2024-03-28T06:09:03.566Z,91432.02
2024-03-28T06:09:36.626Z,91437.95
2024-03-28T06:10:10.576Z,91435.29
2024-03-28T06:11:05.339Z,91436.73
2024-03-28T06:11:38.915Z,91432.44
2024-03-28T06:12:12.757Z,91438.87
2024-03-28T06:12:45.885Z,91433.46
2024-03-28T06:13:19.357Z,91441.49
2024-03-28T06:14:07.083Z,91434.34
2024-03-28T06:14:50.304Z,91437.70
2024-03-28T06:15:23.588Z,91437.17
2024-03-28T06:15:56.779Z,91438.58
2024-03-28T06:16:32.684Z,91441.54
2024-03-28T06:17:05.995Z,91442.79
2024-03-28T06:17:39.350Z,91445.15
2024-03-28T06:18:31.500Z,91443.92
2024-03-28T06:19:05.358Z,91447.81
2024-03-28T06:19:38.954Z,91444.52
2024-03-28T06:20:12.537Z,91447.90
2024-03-28T06:20:45.918Z,91445.60
2024-03-28T06:21:19.402Z,91451.30
2024-03-28T06:22:08.784Z,91434.33
2024-03-28T06:22:42.343Z,91444.13
2024-03-28T06:23:15.640Z,91449.42
2024-03-28T06:23:49.247Z,91446.00
2024-03-28T06:24:23.374Z,91448.05
2024-03-28T06:24:57.156Z,91445.30
2024-03-28T06:25:49.659Z,91452.02
2024-03-28T06:26:24.154Z,91448.54
2024-03-28T06:26:57.600Z,91451.91
2024-03-28T06:27:33.862Z,91450.51
2024-03-28T06:28:09.473Z,91448.66
2024-03-28T06:28:42.743Z,91451.30
2024-03-28T06:29:30.684Z,91449.05
2024-03-28T06:30:04.495Z,91448.10
2024-03-28T06:30:42.066Z,91455.68
2024-03-28T06:31:18.778Z,91455.23
2024-03-28T06:31:53.477Z,91450.34
2024-03-28T06:32:26.768Z,91454.16
2024-03-28T06:33:09.802Z,91451.88
2024-03-28T06:33:44.381Z,91452.48
2024-03-28T06:34:17.722Z,91454.95
2024-03-28T06:34:55.571Z,91454.21
2024-03-28T06:35:28.931Z,91450.30
2024-03-28T06:36:06.233Z,91454.11
2024-03-28T06:36:55.597Z,91450.69
2024-03-28T06:37:29.109Z,91453.80
2024-03-28T06:38:02.839Z,91454.55
2024-03-28T06:38:36.161Z,91450.33
2024-03-28T06:39:10.466Z,91451.71
2024-03-28T06:39:45.472Z,91452.04
2024-03-28T06:40:31.526Z,91449.28
2024-03-28T06:41:05.236Z,91448.73
2024-03-28T06:41:38.591Z,91445.87
2024-03-28T06:42:12.198Z,91449.89
2024-03-28T06:42:45.415Z,91453.73
2024-03-28T06:43:18.756Z,91450.47
2024-03-28T06:44:13.260Z,91451.61
2024-03-28T06:44:48.801Z,91453.39
2024-03-28T06:45:22.187Z,91457.45
2024-03-28T06:45:55.238Z,91462.42
2024-03-28T06:46:29.221Z,91462.79
2024-03-28T06:47:03.382Z,91460.73
2024-03-28T06:47:50.841Z,91464.59
2024-03-28T06:48:25.378Z,91462.65
2024-03-28T06:48:58.920Z,91460.87
2024-03-28T06:49:32.302Z,91464.33
2024-03-28T06:50:06.001Z,91464.45
2024-03-28T06:50:40.133Z,91463.63
2024-03-28T06:51:28.689Z,91459.91
2024-03-28T06:52:02.120Z,91464.19
2024-03-28T06:52:35.550Z,91462.27
2024-03-28T06:53:09.730Z,91463.95
2024-03-28T06:53:43.122Z,91466.15
2024-03-28T06:54:16.477Z,91462.09
2024-03-28T06:55:06.214Z,91466.08
2024-03-28T06:55:39.655Z,91468.67
2024-03-28T06:56:13.110Z,91470.41
2024-03-28T06:56:46.602Z,91462.19
2024-03-28T06:57:19.880Z,91459.59
2024-03-28T06:57:53.282Z,91457.27
2024-03-28T06:58:47.179Z,91460.06
2024-03-28T06:59:21.110Z,91461.97
2024-03-28T06:59:54.436Z,91453.04
2024-03-28T07:00:28.384Z,91456.06
2024-03-28T07:01:05.229Z,91456.30
2024-03-28T07:01:39.099Z,91460.23
2024-03-28T07:02:24.835Z,91453.81
2024-03-28T07:02:58.719Z,91459.77
2024-03-28T07:03:31.900Z,91460.20
2024-03-28T07:04:05.299Z,91462.96
2024-03-28T07:04:38.795Z,91458.79
2024-03-28T07:05:12.002Z,91462.48
2024-03-28T07:06:13.413Z,91461.95
2024-03-28T07:06:50.691Z,91452.27
2024-03-28T07:07:24.167Z,91455.73
2024-03-28T07:07:57.926Z,91453.81
2024-03-28T07:08:31.215Z,91443.64
2024-03-28T07:09:04.781Z,91455.73
2024-03-28T07:09:48.018Z,91449.83
2024-03-28T07:10:22.978Z,91455.69
2024-03-28T07:10:56.618Z,91451.91
2024-03-28T07:11:30.643Z,91450.48
2024-03-28T07:12:04.133Z,91450.69
2024-03-28T07:12:38.931Z,91447.34
2024-03-28T07:13:33.541Z,91447.05
2024-03-28T07:14:09.046Z,91447.18
2024-03-28T07:14:42.643Z,91445.06
2024-03-28T07:15:15.991Z,91445.89
2024-03-28T07:15:49.487Z,91443.64
2024-03-28T07:16:23.071Z,91438.31
2024-03-28T07:17:11.785Z,91436.20
2024-03-28T07:17:45.846Z,91434.48